sensor_id;sensor_type;location;lat;lon;timestamp;pressure;altitude;pressure_sealevel;temperature;humidity
69219;BME280;56232;53.384;-2.732;2022-10-16T00:02:19;99461.87;;;8.43;43.23
69219;BME280;56232;53.384;-2.732;2022-10-16T00:04:45;99461.42;;;8.56;43.28
69219;BME280;56232;53.384;-2.732;2022-10-16T00:07:10;99465.56;;;8.70;43.01
69219;BME280;56232;53.384;-2.732;2022-10-16T00:09:36;99470.35;;;9.36;42.84
69219;BME280;56232;53.384;-2.732;2022-10-16T00:12:01;99470.53;;;9.01;42.89
69219;BME280;56232;53.384;-2.732;2022-10-16T00:14:27;99470.24;;;9.05;42.76
69219;BME280;56232;53.384;-2.732;2022-10-16T00:16:52;99470.45;;;8.43;42.62
69219;BME280;56232;53.384;-2.732;2022-10-16T00:19:18;99470.80;;;8.99;42.65
69219;BME280;56232;53.384;-2.732;2022-10-16T00:21:44;99473.67;;;8.96;42.80
69219;BME280;56232;53.384;-2.732;2022-10-16T00:24:10;99472.65;;;8.87;42.36
69219;BME280;56232;53.384;-2.732;2022-10-16T00:26:36;99473.79;;;8.68;42.58
69219;BME280;56232;53.384;-2.732;2022-10-16T00:29:01;99472.29;;;8.39;42.79
69219;BME280;56232;53.384;-2.732;2022-10-16T00:31:27;99478.33;;;8.48;43.10
69219;BME280;56232;53.384;-2.732;2022-10-16T00:33:53;99485.61;;;8.96;42.92
69219;BME280;56232;53.384;-2.732;2022-10-16T00:36:20;99489.07;;;8.85;42.83
69219;BME280;56232;53.384;-2.732;2022-10-16T00:38:44;99495.79;;;8.79;42.96
69219;BME280;56232;53.384;-2.732;2022-10-16T00:41:12;99496.14;;;8.74;43.08
69219;BME280;56232;53.384;-2.732;2022-10-16T00:43:39;99495.65;;;8.21;43.21
69219;BME280;56232;53.384;-2.732;2022-10-16T00:46:02;99503.54;;;8.72;42.97
69219;BME280;56232;53.384;-2.732;2022-10-16T00:48:26;99500.86;;;8.27;43.12
69219;BME280;56232;53.384;-2.732;2022-10-16T00:50:52;99502.75;;;8.47;43.05
69219;BME280;56232;53.384;-2.732;2022-10-16T00:53:17;99505.42;;;8.54;42.72
69219;BME280;56232;53.384;-2.732;2022-10-16T00:55:42;99505.13;;;9.20;42.77
69219;BME280;56232;53.384;-2.732;2022-10-16T00:58:09;99512.06;;;8.74;42.67
69219;BME280;56232;53.384;-2.732;2022-10-16T01:00:34;99513.43;;;9.32;42.16
69219;BME280;56232;53.384;-2.732;2022-10-16T01:03:01;99523.77;;;8.32;42.39
69219;BME280;56232;53.384;-2.732;2022-10-16T01:05:30;99531.21;;;9.09;42.45
69219;BME280;56232;53.384;-2.732;2022-10-16T01:07:57;99542.72;;;9.33;41.76
69219;BME280;56232;53.384;-2.732;2022-10-16T01:10:23;99543.41;;;8.90;42.23
69219;BME280;56232;53.384;-2.732;2022-10-16T01:12:46;99553.15;;;9.82;41.34
69219;BME280;56232;53.384;-2.732;2022-10-16T01:15:12;99554.40;;;8.77;41.30
69219;BME280;56232;53.384;-2.732;2022-10-16T01:17:40;99557.81;;;10.15;40.81
69219;BME280;56232;53.384;-2.732;2022-10-16T01:20:05;99563.15;;;9.23;40.88
69219;BME280;56232;53.384;-2.732;2022-10-16T01:22:33;99570.94;;;9.42;41.08
69219;BME280;56232;53.384;-2.732;2022-10-16T01:24:53;99575.69;;;9.60;40.54
69219;BME280;56232;53.384;-2.732;2022-10-16T01:27:19;99576.44;;;9.78;40.86
69219;BME280;56232;53.384;-2.732;2022-10-16T01:29:50;99581.93;;;9.94;40.64
69219;BME280;56232;53.384;-2.732;2022-10-16T01:32:14;99589.39;;;10.06;40.05
69219;BME280;56232;53.384;-2.732;2022-10-16T01:34:38;99595.22;;;10.10;40.18
69219;BME280;56232;53.384;-2.732;2022-10-16T01:37:04;99594.18;;;9.59;40.46
69219;BME280;56232;53.384;-2.732;2022-10-16T01:39:28;99597.60;;;10.22;40.24
69219;BME280;56232;53.384;-2.732;2022-10-16T01:42:00;99605.22;;;10.08;40.31
69219;BME280;56232;53.384;-2.732;2022-10-16T01:44:19;99614.76;;;10.25;39.85
69219;BME280;56232;53.384;-2.732;2022-10-16T01:46:43;99623.01;;;10.83;40.21
69219;BME280;56232;53.384;-2.732;2022-10-16T01:49:08;99628.15;;;10.45;40.37
69219;BME280;56232;53.384;-2.732;2022-10-16T01:51:34;99636.73;;;9.92;40.26
69219;BME280;56232;53.384;-2.732;2022-10-16T01:54:00;99639.30;;;9.69;39.70
69219;BME280;56232;53.384;-2.732;2022-10-16T01:56:25;99642.33;;;11.23;39.98
69219;BME280;56232;53.384;-2.732;2022-10-16T01:58:54;99646.99;;;9.98;39.77
69219;BME280;56232;53.384;-2.732;2022-10-16T02:01:19;99654.40;;;9.76;39.85
69219;BME280;56232;53.384;-2.732;2022-10-16T02:03:42;99656.95;;;9.45;40.17
69219;BME280;56232;53.384;-2.732;2022-10-16T02:06:07;99660.56;;;9.30;40.23
69219;BME280;56232;53.384;-2.732;2022-10-16T02:08:34;99668.21;;;9.22;40.39
69219;BME280;56232;53.384;-2.732;2022-10-16T02:11:00;99670.72;;;9.20;40.42
69219;BME280;56232;53.384;-2.732;2022-10-16T02:13:29;99677.26;;;9.05;40.18
69219;BME280;56232;53.384;-2.732;2022-10-16T02:15:49;99684.68;;;8.92;40.31
69219;BME280;56232;53.384;-2.732;2022-10-16T02:18:15;99688.18;;;9.03;39.86
69219;BME280;56232;53.384;-2.732;2022-10-16T02:20:46;99690.78;;;10.26;39.84
69219;BME280;56232;53.384;-2.732;2022-10-16T02:23:08;99698.13;;;10.22;39.97
69219;BME280;56232;53.384;-2.732;2022-10-16T02:25:36;99704.05;;;9.30;39.91
69219;BME280;56232;53.384;-2.732;2022-10-16T02:28:01;99713.72;;;9.45;39.65
69219;BME280;56232;53.384;-2.732;2022-10-16T02:30:25;99718.90;;;9.56;39.70
69219;BME280;56232;53.384;-2.732;2022-10-16T02:32:50;99729.82;;;9.62;39.67
69219;BME280;56232;53.384;-2.732;2022-10-16T02:35:17;99729.13;;;9.41;39.63
69219;BME280;56232;53.384;-2.732;2022-10-16T02:37:41;99733.33;;;10.09;39.62
69219;BME280;56232;53.384;-2.732;2022-10-16T02:40:07;99744.76;;;9.61;39.82
69219;BME280;56232;53.384;-2.732;2022-10-16T02:42:34;99744.18;;;8.65;39.97
69219;BME280;56232;53.384;-2.732;2022-10-16T02:44:57;99745.56;;;8.91;40.26
69219;BME280;56232;53.384;-2.732;2022-10-16T02:47:23;99751.30;;;8.58;40.33
69219;BME280;56232;53.384;-2.732;2022-10-16T02:49:49;99751.62;;;8.34;40.59
69219;BME280;56232;53.384;-2.732;2022-10-16T02:52:15;99754.38;;;8.77;40.58
69219;BME280;56232;53.384;-2.732;2022-10-16T02:54:40;99760.15;;;8.11;40.68
69219;BME280;56232;53.384;-2.732;2022-10-16T02:57:06;99766.30;;;7.96;40.73
69219;BME280;56232;53.384;-2.732;2022-10-16T02:59:32;99768.76;;;7.78;40.87
69219;BME280;56232;53.384;-2.732;2022-10-16T03:01:57;99777.02;;;7.70;40.90
69219;BME280;56232;53.384;-2.732;2022-10-16T03:04:23;99782.38;;;7.61;40.88
69219;BME280;56232;53.384;-2.732;2022-10-16T03:06:48;99786.36;;;7.55;40.88
69219;BME280;56232;53.384;-2.732;2022-10-16T03:09:14;99795.54;;;7.54;40.75
69219;BME280;56232;53.384;-2.732;2022-10-16T03:11:40;99801.64;;;7.83;41.08
69219;BME280;56232;53.384;-2.732;2022-10-16T03:14:06;99807.70;;;8.30;41.17
69219;BME280;56232;53.384;-2.732;2022-10-16T03:16:32;99817.80;;;8.30;40.94
69219;BME280;56232;53.384;-2.732;2022-10-16T03:18:57;99830.99;;;7.69;41.00
69219;BME280;56232;53.384;-2.732;2022-10-16T03:21:23;99836.07;;;7.54;41.11
69219;BME280;56232;53.384;-2.732;2022-10-16T03:23:48;99839.86;;;8.02;41.13
69219;BME280;56232;53.384;-2.732;2022-10-16T03:26:14;99843.16;;;8.00;41.12
69219;BME280;56232;53.384;-2.732;2022-10-16T03:28:40;99848.01;;;7.96;41.15
69219;BME280;56232;53.384;-2.732;2022-10-16T03:31:05;99852.62;;;7.87;41.03
69219;BME280;56232;53.384;-2.732;2022-10-16T03:33:32;99861.22;;;7.31;41.11
69219;BME280;56232;53.384;-2.732;2022-10-16T03:35:58;99874.23;;;7.70;41.17
69219;BME280;56232;53.384;-2.732;2022-10-16T03:38:23;99882.62;;;7.68;41.17
69219;BME280;56232;53.384;-2.732;2022-10-16T03:40:48;99888.55;;;7.70;40.97
69219;BME280;56232;53.384;-2.732;2022-10-16T03:43:14;99888.44;;;7.59;41.11
69219;BME280;56232;53.384;-2.732;2022-10-16T03:45:40;99896.97;;;7.47;41.12
69219;BME280;56232;53.384;-2.732;2022-10-16T03:48:05;99903.37;;;7.47;41.07
69219;BME280;56232;53.384;-2.732;2022-10-16T03:50:32;99905.85;;;7.41;40.89
69219;BME280;56232;53.384;-2.732;2022-10-16T03:52:57;99910.10;;;7.29;41.12
69219;BME280;56232;53.384;-2.732;2022-10-16T03:55:22;99917.17;;;7.18;41.09
69219;BME280;56232;53.384;-2.732;2022-10-16T03:57:48;99925.76;;;7.16;41.09
69219;BME280;56232;53.384;-2.732;2022-10-16T04:00:14;99927.47;;;7.14;41.27
69219;BME280;56232;53.384;-2.732;2022-10-16T04:02:40;99934.93;;;7.63;41.25
69219;BME280;56232;53.384;-2.732;2022-10-16T04:05:06;99937.82;;;7.00;41.34
69219;BME280;56232;53.384;-2.732;2022-10-16T04:07:31;99942.47;;;6.95;41.33
69219;BME280;56232;53.384;-2.732;2022-10-16T04:09:57;99944.36;;;6.94;41.42
69219;BME280;56232;53.384;-2.732;2022-10-16T04:12:22;99947.07;;;6.90;41.34
69219;BME280;56232;53.384;-2.732;2022-10-16T04:14:48;99950.89;;;6.89;41.48
69219;BME280;56232;53.384;-2.732;2022-10-16T04:17:14;99953.80;;;6.84;41.55
69219;BME280;56232;53.384;-2.732;2022-10-16T04:19:40;99956.60;;;6.85;41.61
69219;BME280;56232;53.384;-2.732;2022-10-16T04:22:05;99963.05;;;6.78;41.41
69219;BME280;56232;53.384;-2.732;2022-10-16T04:24:32;99962.20;;;6.74;41.35
69219;BME280;56232;53.384;-2.732;2022-10-16T04:26:57;99966.75;;;7.31;41.36
69219;BME280;56232;53.384;-2.732;2022-10-16T04:29:23;99970.72;;;6.73;41.57
69219;BME280;56232;53.384;-2.732;2022-10-16T04:31:48;99978.28;;;6.72;41.33
69219;BME280;56232;53.384;-2.732;2022-10-16T04:34:14;99979.27;;;6.81;41.39
69219;BME280;56232;53.384;-2.732;2022-10-16T04:36:40;99985.84;;;6.82;41.10
69219;BME280;56232;53.384;-2.732;2022-10-16T04:39:06;99985.95;;;6.81;40.97
69219;BME280;56232;53.384;-2.732;2022-10-16T04:41:32;99989.04;;;6.68;40.93
69219;BME280;56232;53.384;-2.732;2022-10-16T04:43:57;100000.30;;;7.19;41.09
69219;BME280;56232;53.384;-2.732;2022-10-16T04:46:23;100004.69;;;6.53;41.03
69219;BME280;56232;53.384;-2.732;2022-10-16T04:48:49;100011.34;;;5.92;41.38
69219;BME280;56232;53.384;-2.732;2022-10-16T04:51:14;100022.95;;;7.01;41.51
69219;BME280;56232;53.384;-2.732;2022-10-16T04:53:40;100022.55;;;6.97;41.36
69219;BME280;56232;53.384;-2.732;2022-10-16T04:56:06;100022.53;;;6.35;41.41
69219;BME280;56232;53.384;-2.732;2022-10-16T04:58:32;100021.84;;;6.94;41.38
69219;BME280;56232;53.384;-2.732;2022-10-16T05:00:57;100020.92;;;6.91;41.52
69219;BME280;56232;53.384;-2.732;2022-10-16T05:03:23;100027.67;;;6.32;41.36
69219;BME280;56232;53.384;-2.732;2022-10-16T05:05:49;100034.99;;;6.26;41.47
69219;BME280;56232;53.384;-2.732;2022-10-16T05:08:15;100037.05;;;6.88;41.10
69219;BME280;56232;53.384;-2.732;2022-10-16T05:10:42;100039.75;;;7.34;41.24
69219;BME280;56232;53.384;-2.732;2022-10-16T05:13:06;100055.48;;;6.20;41.34
69219;BME280;56232;53.384;-2.732;2022-10-16T05:15:33;100067.11;;;7.27;41.53
69219;BME280;56232;53.384;-2.732;2022-10-16T05:17:58;100072.69;;;6.14;41.29
69219;BME280;56232;53.384;-2.732;2022-10-16T05:20:23;100076.60;;;6.21;41.11
69219;BME280;56232;53.384;-2.732;2022-10-16T05:22:49;100081.78;;;6.13;41.07
69219;BME280;56232;53.384;-2.732;2022-10-16T05:25:15;100083.00;;;7.12;41.29
69219;BME280;56232;53.384;-2.732;2022-10-16T05:27:40;100085.59;;;5.98;41.37
69219;BME280;56232;53.384;-2.732;2022-10-16T05:30:07;100091.50;;;7.14;41.44
69219;BME280;56232;53.384;-2.732;2022-10-16T05:32:33;100103.70;;;6.66;41.24
69219;BME280;56232;53.384;-2.732;2022-10-16T05:34:57;100106.88;;;6.60;40.99
69219;BME280;56232;53.384;-2.732;2022-10-16T05:37:23;100109.36;;;6.51;41.21
69219;BME280;56232;53.384;-2.732;2022-10-16T05:39:49;100114.50;;;6.98;41.09
69219;BME280;56232;53.384;-2.732;2022-10-16T05:42:15;100119.44;;;6.49;41.12
69219;BME280;56232;53.384;-2.732;2022-10-16T05:44:41;100128.87;;;5.88;41.03
69219;BME280;56232;53.384;-2.732;2022-10-16T05:47:06;100132.61;;;6.39;41.30
69219;BME280;56232;53.384;-2.732;2022-10-16T05:49:33;100138.45;;;6.93;41.17
69219;BME280;56232;53.384;-2.732;2022-10-16T05:51:58;100141.82;;;6.36;41.13
69219;BME280;56232;53.384;-2.732;2022-10-16T05:54:24;100150.69;;;6.34;41.31
69219;BME280;56232;53.384;-2.732;2022-10-16T05:56:49;100159.91;;;6.28;41.24
69219;BME280;56232;53.384;-2.732;2022-10-16T05:59:15;100159.68;;;6.78;40.95
69219;BME280;56232;53.384;-2.732;2022-10-16T06:01:41;100159.66;;;5.60;40.71
69219;BME280;56232;53.384;-2.732;2022-10-16T06:04:08;100158.49;;;6.64;41.07
69219;BME280;56232;53.384;-2.732;2022-10-16T06:06:34;100160.98;;;6.16;41.21
69219;BME280;56232;53.384;-2.732;2022-10-16T06:08:58;100161.04;;;6.67;41.30
69219;BME280;56232;53.384;-2.732;2022-10-16T06:11:26;100168.59;;;6.77;41.07
69219;BME280;56232;53.384;-2.732;2022-10-16T06:13:50;100176.24;;;6.28;41.31
69219;BME280;56232;53.384;-2.732;2022-10-16T06:16:15;100179.85;;;6.31;41.22
69219;BME280;56232;53.384;-2.732;2022-10-16T06:18:41;100184.22;;;6.84;41.21
69219;BME280;56232;53.384;-2.732;2022-10-16T06:21:08;100187.60;;;6.35;40.97
69219;BME280;56232;53.384;-2.732;2022-10-16T06:23:33;100193.38;;;6.24;41.06
69219;BME280;56232;53.384;-2.732;2022-10-16T06:26:04;100197.33;;;6.21;41.12
69219;BME280;56232;53.384;-2.732;2022-10-16T06:28:24;100199.56;;;6.16;41.09
69219;BME280;56232;53.384;-2.732;2022-10-16T06:30:58;100209.37;;;6.63;41.22
69219;BME280;56232;53.384;-2.732;2022-10-16T06:33:16;100217.10;;;6.08;41.42
69219;BME280;56232;53.384;-2.732;2022-10-16T06:35:41;100213.10;;;6.52;41.37
69219;BME280;56232;53.384;-2.732;2022-10-16T06:38:07;100210.24;;;7.10;41.19
69219;BME280;56232;53.384;-2.732;2022-10-16T06:40:34;100209.31;;;6.62;40.80
69219;BME280;56232;53.384;-2.732;2022-10-16T06:42:59;100213.25;;;6.13;41.19
69219;BME280;56232;53.384;-2.732;2022-10-16T06:45:24;100228.02;;;6.74;41.13
69219;BME280;56232;53.384;-2.732;2022-10-16T06:47:50;100240.15;;;6.74;40.98
69219;BME280;56232;53.384;-2.732;2022-10-16T06:50:16;100240.86;;;5.73;40.97
69219;BME280;56232;53.384;-2.732;2022-10-16T06:52:42;100242.79;;;6.34;40.89
69219;BME280;56232;53.384;-2.732;2022-10-16T06:55:08;100251.70;;;6.82;40.87
69219;BME280;56232;53.384;-2.732;2022-10-16T06:57:34;100255.76;;;7.42;40.84
69219;BME280;56232;53.384;-2.732;2022-10-16T06:59:59;100257.89;;;6.93;40.47
69219;BME280;56232;53.384;-2.732;2022-10-16T07:02:25;100264.40;;;6.51;40.53
69219;BME280;56232;53.384;-2.732;2022-10-16T07:04:50;100270.84;;;6.54;40.54
69219;BME280;56232;53.384;-2.732;2022-10-16T07:07:16;100278.27;;;7.16;40.85
69219;BME280;56232;53.384;-2.732;2022-10-16T07:09:41;100287.97;;;6.10;40.91
69219;BME280;56232;53.384;-2.732;2022-10-16T07:12:07;100296.29;;;6.83;40.79
69219;BME280;56232;53.384;-2.732;2022-10-16T07:14:33;100304.31;;;6.96;40.72
69219;BME280;56232;53.384;-2.732;2022-10-16T07:16:58;100305.94;;;7.55;40.45
69219;BME280;56232;53.384;-2.732;2022-10-16T07:19:24;100302.13;;;6.57;40.53
69219;BME280;56232;53.384;-2.732;2022-10-16T07:21:49;100300.41;;;7.75;40.68
69219;BME280;56232;53.384;-2.732;2022-10-16T07:24:16;100300.27;;;6.82;40.69
69219;BME280;56232;53.384;-2.732;2022-10-16T07:26:42;100308.15;;;6.88;40.71
69219;BME280;56232;53.384;-2.732;2022-10-16T07:29:08;100314.95;;;7.00;40.57
69219;BME280;56232;53.384;-2.732;2022-10-16T07:31:33;100324.14;;;7.04;40.70
69219;BME280;56232;53.384;-2.732;2022-10-16T07:33:58;100322.89;;;7.74;40.51
69219;BME280;56232;53.384;-2.732;2022-10-16T07:36:24;100327.51;;;7.22;40.58
69219;BME280;56232;53.384;-2.732;2022-10-16T07:38:50;100335.66;;;7.38;40.61
69219;BME280;56232;53.384;-2.732;2022-10-16T07:41:17;100339.22;;;7.50;40.19
69219;BME280;56232;53.384;-2.732;2022-10-16T07:43:45;100349.81;;;7.16;40.21
69219;BME280;56232;53.384;-2.732;2022-10-16T07:46:07;100357.19;;;7.53;40.35
69219;BME280;56232;53.384;-2.732;2022-10-16T07:48:34;100364.51;;;8.15;40.00
69219;BME280;56232;53.384;-2.732;2022-10-16T07:50:58;100370.98;;;7.78;39.95
69219;BME280;56232;53.384;-2.732;2022-10-16T07:53:24;100379.90;;;8.05;39.62
69219;BME280;56232;53.384;-2.732;2022-10-16T07:55:50;100391.10;;;8.13;39.30
69219;BME280;56232;53.384;-2.732;2022-10-16T07:58:16;100403.11;;;8.28;39.31
69219;BME280;56232;53.384;-2.732;2022-10-16T08:00:41;100410.70;;;8.80;39.11
69219;BME280;56232;53.384;-2.732;2022-10-16T08:03:08;100407.61;;;8.36;38.76
69219;BME280;56232;53.384;-2.732;2022-10-16T08:05:33;100408.44;;;7.95;38.76
69219;BME280;56232;53.384;-2.732;2022-10-16T08:07:58;100409.13;;;8.65;38.68
69219;BME280;56232;53.384;-2.732;2022-10-16T08:10:26;100408.72;;;8.28;38.66
69219;BME280;56232;53.384;-2.732;2022-10-16T08:12:49;100415.84;;;8.37;38.90
69219;BME280;56232;53.384;-2.732;2022-10-16T08:15:15;100420.78;;;8.50;38.50
69219;BME280;56232;53.384;-2.732;2022-10-16T08:17:41;100420.70;;;8.54;38.62
69219;BME280;56232;53.384;-2.732;2022-10-16T08:20:08;100421.72;;;8.70;38.79
69219;BME280;56232;53.384;-2.732;2022-10-16T08:22:33;100426.00;;;8.33;38.76
69219;BME280;56232;53.384;-2.732;2022-10-16T08:24:58;100427.31;;;9.14;38.66
69219;BME280;56232;53.384;-2.732;2022-10-16T08:27:24;100433.52;;;8.81;38.07
69219;BME280;56232;53.384;-2.732;2022-10-16T08:29:51;100448.26;;;9.56;38.26
69219;BME280;56232;53.384;-2.732;2022-10-16T08:32:16;100456.03;;;9.74;38.02
69219;BME280;56232;53.384;-2.732;2022-10-16T08:34:41;100455.73;;;11.96;36.53
69219;BME280;56232;53.384;-2.732;2022-10-16T08:37:07;100456.93;;;13.30;35.10
69219;BME280;56232;53.384;-2.732;2022-10-16T08:39:33;100462.91;;;15.55;32.94
69219;BME280;56232;53.384;-2.732;2022-10-16T08:42:11;100475.16;;;16.54;30.82
69219;BME280;56232;53.384;-2.732;2022-10-16T08:44:34;100489.45;;;18.13;29.68
69219;BME280;56232;53.384;-2.732;2022-10-16T08:46:54;100505.13;;;17.30;29.06
69219;BME280;56232;53.384;-2.732;2022-10-16T08:49:15;100506.26;;;15.21;28.94
69219;BME280;56232;53.384;-2.732;2022-10-16T08:51:41;100515.31;;;14.81;29.88
69219;BME280;56232;53.384;-2.732;2022-10-16T08:54:15;100518.59;;;15.30;30.09
69219;BME280;56232;53.384;-2.732;2022-10-16T08:56:33;100520.79;;;16.42;29.29
69219;BME280;56232;53.384;-2.732;2022-10-16T08:58:58;100520.58;;;17.49;28.13
69219;BME280;56232;53.384;-2.732;2022-10-16T09:01:25;100519.80;;;18.70;26.82
69219;BME280;56232;53.384;-2.732;2022-10-16T09:04:02;100522.34;;;19.36;25.89
69219;BME280;56232;53.384;-2.732;2022-10-16T09:06:25;100521.64;;;19.44;25.16
69219;BME280;56232;53.384;-2.732;2022-10-16T09:08:46;100518.04;;;20.56;24.63
69219;BME280;56232;53.384;-2.732;2022-10-16T09:11:24;100518.79;;;21.23;24.39
69219;BME280;56232;53.384;-2.732;2022-10-16T09:13:36;100520.56;;;20.60;24.21
69219;BME280;56232;53.384;-2.732;2022-10-16T09:16:09;100524.90;;;21.35;23.59
69219;BME280;56232;53.384;-2.732;2022-10-16T09:18:34;100530.83;;;21.64;23.20
69219;BME280;56232;53.384;-2.732;2022-10-16T09:20:51;100534.80;;;21.20;23.04
69219;BME280;56232;53.384;-2.732;2022-10-16T09:23:16;100539.84;;;21.41;23.06
69219;BME280;56232;53.384;-2.732;2022-10-16T09:25:40;100544.80;;;21.24;22.75
69219;BME280;56232;53.384;-2.732;2022-10-16T09:28:04;100552.77;;;22.01;22.97
69219;BME280;56232;53.384;-2.732;2022-10-16T09:30:30;100556.58;;;22.19;22.51
69219;BME280;56232;53.384;-2.732;2022-10-16T09:32:58;100558.55;;;21.65;22.39
69219;BME280;56232;53.384;-2.732;2022-10-16T09:35:25;100557.98;;;20.97;22.47
69219;BME280;56232;53.384;-2.732;2022-10-16T09:37:50;100555.70;;;21.74;23.11
69219;BME280;56232;53.384;-2.732;2022-10-16T09:40:23;100558.74;;;20.85;22.85
69219;BME280;56232;53.384;-2.732;2022-10-16T09:42:38;100561.54;;;21.61;22.88
69219;BME280;56232;53.384;-2.732;2022-10-16T09:45:05;100564.72;;;21.56;23.19
69219;BME280;56232;53.384;-2.732;2022-10-16T09:47:31;100565.36;;;20.65;23.25
69219;BME280;56232;53.384;-2.732;2022-10-16T09:49:56;100570.28;;;20.79;23.74
69219;BME280;56232;53.384;-2.732;2022-10-16T09:52:21;100569.75;;;19.66;24.23
69219;BME280;56232;53.384;-2.732;2022-10-16T09:54:51;100569.05;;;18.56;25.39
69219;BME280;56232;53.384;-2.732;2022-10-16T09:57:13;100576.61;;;18.39;26.54
69219;BME280;56232;53.384;-2.732;2022-10-16T09:59:45;100586.09;;;17.22;27.60
69219;BME280;56232;53.384;-2.732;2022-10-16T10:02:10;100594.22;;;15.97;27.96
69219;BME280;56232;53.384;-2.732;2022-10-16T10:04:38;100599.66;;;15.49;28.49
69219;BME280;56232;53.384;-2.732;2022-10-16T10:06:55;100597.38;;;15.24;30.14
69219;BME280;56232;53.384;-2.732;2022-10-16T10:09:22;100591.47;;;14.48;30.62
69219;BME280;56232;53.384;-2.732;2022-10-16T10:11:49;100589.30;;;14.26;31.17
69219;BME280;56232;53.384;-2.732;2022-10-16T10:14:17;100585.16;;;13.82;31.14
69219;BME280;56232;53.384;-2.732;2022-10-16T10:16:37;100582.70;;;13.75;31.26
69219;BME280;56232;53.384;-2.732;2022-10-16T10:19:02;100583.57;;;14.20;32.64
69219;BME280;56232;53.384;-2.732;2022-10-16T10:21:28;100588.77;;;13.90;33.60
69219;BME280;56232;53.384;-2.732;2022-10-16T10:23:55;100598.10;;;13.69;34.09
69219;BME280;56232;53.384;-2.732;2022-10-16T10:26:24;100613.90;;;13.94;34.11
69219;BME280;56232;53.384;-2.732;2022-10-16T10:28:53;100620.79;;;14.12;34.41
69219;BME280;56232;53.384;-2.732;2022-10-16T10:31:13;100627.61;;;13.33;34.54
69219;BME280;56232;53.384;-2.732;2022-10-16T10:33:42;100620.07;;;14.39;34.61
69219;BME280;56232;53.384;-2.732;2022-10-16T10:36:10;100615.66;;;14.16;35.02
69219;BME280;56232;53.384;-2.732;2022-10-16T10:38:34;100605.56;;;13.88;34.77
69219;BME280;56232;53.384;-2.732;2022-10-16T10:41:01;100608.10;;;14.10;34.54
69219;BME280;56232;53.384;-2.732;2022-10-16T10:43:31;100613.76;;;14.26;34.66
69219;BME280;56232;53.384;-2.732;2022-10-16T10:45:53;100612.29;;;14.52;33.99
69219;BME280;56232;53.384;-2.732;2022-10-16T10:48:24;100621.53;;;14.10;34.44
69219;BME280;56232;53.384;-2.732;2022-10-16T10:50:41;100632.13;;;15.21;33.94
69219;BME280;56232;53.384;-2.732;2022-10-16T10:53:07;100627.39;;;14.53;34.12
69219;BME280;56232;53.384;-2.732;2022-10-16T10:55:36;100625.00;;;15.97;34.09
69219;BME280;56232;53.384;-2.732;2022-10-16T10:58:05;100623.49;;;15.29;33.81
69219;BME280;56232;53.384;-2.732;2022-10-16T11:00:21;100625.96;;;15.69;33.51
69219;BME280;56232;53.384;-2.732;2022-10-16T11:02:50;100629.89;;;15.13;33.38
69219;BME280;56232;53.384;-2.732;2022-10-16T11:07:39;100634.21;;;15.25;33.90
69219;BME280;56232;53.384;-2.732;2022-10-16T11:10:07;100635.41;;;15.17;34.10
69219;BME280;56232;53.384;-2.732;2022-10-16T11:12:30;100636.06;;;14.80;34.52
69219;BME280;56232;53.384;-2.732;2022-10-16T11:14:57;100639.11;;;14.47;34.90
69219;BME280;56232;53.384;-2.732;2022-10-16T11:17:22;100641.74;;;14.39;34.76
69219;BME280;56232;53.384;-2.732;2022-10-16T11:19:47;100643.33;;;14.35;34.80
69219;BME280;56232;53.384;-2.732;2022-10-16T11:22:16;100637.14;;;14.26;34.81
69219;BME280;56232;53.384;-2.732;2022-10-16T11:24:40;100635.47;;;15.64;34.65
69219;BME280;56232;53.384;-2.732;2022-10-16T11:27:04;100629.13;;;15.97;34.72
69219;BME280;56232;53.384;-2.732;2022-10-16T11:29:29;100618.71;;;15.33;34.48
69219;BME280;56232;53.384;-2.732;2022-10-16T11:31:55;100610.02;;;15.76;34.14
69219;BME280;56232;53.384;-2.732;2022-10-16T11:34:22;100609.62;;;15.57;33.70
69219;BME280;56232;53.384;-2.732;2022-10-16T11:36:45;100613.19;;;16.56;33.21
69219;BME280;56232;53.384;-2.732;2022-10-16T11:39:17;100616.15;;;16.50;32.63
69219;BME280;56232;53.384;-2.732;2022-10-16T11:41:35;100614.98;;;16.44;32.61
69219;BME280;56232;53.384;-2.732;2022-10-16T11:44:07;100605.73;;;16.33;32.01
69219;BME280;56232;53.384;-2.732;2022-10-16T11:46:26;100602.21;;;17.19;32.34
69219;BME280;56232;53.384;-2.732;2022-10-16T11:48:55;100601.18;;;17.56;32.16
69219;BME280;56232;53.384;-2.732;2022-10-16T11:51:21;100598.21;;;17.90;32.09
69219;BME280;56232;53.384;-2.732;2022-10-16T11:53:46;100600.29;;;17.12;31.65
69219;BME280;56232;53.384;-2.732;2022-10-16T11:56:07;100598.45;;;18.44;31.68
69219;BME280;56232;53.384;-2.732;2022-10-16T11:58:37;100597.56;;;17.33;31.60
69219;BME280;56232;53.384;-2.732;2022-10-16T12:01:03;100593.62;;;17.10;31.12
69219;BME280;56232;53.384;-2.732;2022-10-16T12:03:28;100593.91;;;17.51;31.13
69219;BME280;56232;53.384;-2.732;2022-10-16T12:06:02;100594.86;;;17.62;31.38
69219;BME280;56232;53.384;-2.732;2022-10-16T12:08:16;100589.59;;;17.40;31.33
69219;BME280;56232;53.384;-2.732;2022-10-16T12:10:43;100588.41;;;16.17;31.14
69219;BME280;56232;53.384;-2.732;2022-10-16T12:15:34;100595.27;;;16.05;31.64
69219;BME280;56232;53.384;-2.732;2022-10-16T12:17:58;100593.96;;;16.90;32.21
69219;BME280;56232;53.384;-2.732;2022-10-16T12:20:27;100602.51;;;16.51;31.93
69219;BME280;56232;53.384;-2.732;2022-10-16T12:22:51;100615.93;;;16.29;31.43
69219;BME280;56232;53.384;-2.732;2022-10-16T12:25:21;100624.19;;;16.13;31.81
69219;BME280;56232;53.384;-2.732;2022-10-16T12:27:40;100624.79;;;15.90;32.18
69219;BME280;56232;53.384;-2.732;2022-10-16T12:30:06;100627.20;;;15.90;32.05
69219;BME280;56232;53.384;-2.732;2022-10-16T12:32:33;100636.10;;;16.06;31.54
69219;BME280;56232;53.384;-2.732;2022-10-16T12:34:58;100644.62;;;16.87;30.71
69219;BME280;56232;53.384;-2.732;2022-10-16T12:37:24;100648.20;;;16.76;31.23
69219;BME280;56232;53.384;-2.732;2022-10-16T12:39:49;100648.05;;;16.83;31.18
69219;BME280;56232;53.384;-2.732;2022-10-16T12:42:21;100644.13;;;17.44;30.97
69219;BME280;56232;53.384;-2.732;2022-10-16T12:44:39;100643.58;;;17.07;30.60
69219;BME280;56232;53.384;-2.732;2022-10-16T12:49:36;100648.29;;;17.07;31.20